Details From LFOB - Beauvais Tille
To LEGE - Girona
Flight Number -
Tags Generated
Created
Modified
Stats Distance 455 nm / 842 km
Max Altitude 0 ft / 0 m
Waypoints 4
Social Downloads 0
Likes 0
Share VATSIM

Download

Looking for another format? Having issues loading an existing format? Contact us
Advertisement - Login to hide

Notes

Generated

Route

LFOB ULT R2251 LEGE

ID Type Via Altitude Latitude Longitude Leg Dist Tot Dist Heading (true) Name
O LFOB APT - 0 ft / 0 m 49.45458˚ 2.11302˚ - 0 nm - -
ULT NDB - 0 ft / 0 m 45.53778˚ 2.41972˚ 235 nm 235 nm 177° / 177° Ussel Thalamy NDB
R2251 FIX - 0 ft / 0 m 41.91570˚ 2.76612˚ 218 nm 453 nm 176° / 176° -
O LEGE APT - 0 ft / 0 m 41.89491˚ 2.75826˚ 1 nm 454 nm 196° / 196° -

Altitude Profile

Advertisement - Login to hide

Weather


0- 5 10 15 20 25 30 35+ Temperature / ° C

Clouds and Precipitation
Forecast for 2017-12-18 00:00 UTC. Updated an hour ago

Ground ~20,000 ft ~40,000 ft Winds

LFOB

Details ICAO LFOB (BVA)
Name Beauvais-Tille
Region France
Timezone Europe/Paris (UTC+1.0)
Stats Elevation 358 ft / 109 m (AMSL)
Location 49.456000° 2.118914°
Runways 2
Magnetic Variation 0.476° E

METAR

LFOB 172200Z AUTO 20009KT 7000 -RA OVC005/// ///TCU 05/05 Q1023 TEMPO 2000 DZRA OVC004

Decode

TAF

TAF TAF LFOB 171700Z 1718/1818 20010KT 9999 BKN040 BECMG 1719/1722 OVC007 TEMPO 1721/1806 2000 DZRA OVC004 BECMG 1800/1802 26013KT FM180600 35010KT 9999 NSW BKN017

Decode

Departure Runways

ID Width Length Bearing (true) Bearing (mag) Surface Threshold Offset Overrun Length
04 82 ft / 25 m 2,321 ft / 707 m 41.41° 40.93° Asphalt 0 ft / 0 m 0 ft / 0 m
12 148 ft / 45 m 7,954 ft / 2,424 m 123.73° 123.25° Asphalt 148 ft / 45 m 0 ft / 0 m
22 82 ft / 25 m 2,321 ft / 707 m 221.41° 220.93° Asphalt 0 ft / 0 m 0 ft / 0 m
30 148 ft / 45 m 7,954 ft / 2,424 m 303.75° 303.27° Asphalt 0 ft / 0 m 0 ft / 0 m

LEGE

Details ICAO LEGE (GRO)
Name Girona
Region Spain
Timezone Europe/Madrid (UTC+1.0)
Stats Elevation 403 ft / 123 m (AMSL)
Location 41.905202° 2.762133°
Runways 1
Magnetic Variation 0.978° E

METAR

LEGE 172200Z 00000KT 9999 FEW030 01/M02 Q1029

Decode

TAF

TAF LEGE 171700Z 1718/1818 VRB03KT 9999 FEW030 TX12/1813Z TNM01/1806Z

Decode

Destination Runways

ID Width Length Bearing (true) Bearing (mag) Surface Threshold Offset Overrun Length
02 148 ft / 45 m 7,880 ft / 2,402 m 15.50° 14.52° Asphalt 0 ft / 0 m 210 ft / 64 m
20 148 ft / 45 m 7,880 ft / 2,402 m 195.50° 194.52° Asphalt 0 ft / 0 m 200 ft / 61 m

Approach Navaids

Runway Type Ident Frequency Range Bearing (true) Bearing (mag) Slope Elevation
20 Localiser IGN 109.90 MHz 18 nm / 33 km 195.60° 194.62° - 468 ft / 143 m (AMSL)
20 Glidescope IGN 109.90 MHz 10 nm / 19 km 195.50° 194.52° 3.00° 403 ft / 123 m (AMSL)
20 DME IGN 109.90 MHz 18 nm / 33 km - - - 463 ft / 141 m (AMSL)

Popular Alternatives